Time;durP1;ratioP1;P1;durP2;ratioP2;P2;SDS_P1;SDS_P2;PMS_P1;PMS_P2;Temp;Humidity;BMP_temperature;BMP_pressure;BME280_temperature;BME280_humidity;BME280_pressure;Samples;Min_cycle;Max_cycle;Signal;HPM_P1;HPM_P2
2023/12/10 00:01:19;;;;;;;19.85;4.70;;;9.20;99.90;;;;;;5096374;28;20054;-65
2023/12/10 00:03:46;;;;;;;18.02;3.60;;;9.20;99.90;;;;;;5096711;28;20122;-65
2023/12/10 00:06:13;;;;;;;19.63;3.83;;;9.20;99.90;;;;;;5096567;28;20051;-68
2023/12/10 00:08:40;;;;;;;16.27;3.67;;;9.20;99.90;;;;;;5096465;28;20040;-69
2023/12/10 00:11:07;;;;;;;18.42;4.03;;;9.20;99.90;;;;;;5096837;28;20102;-69
2023/12/10 00:13:34;;;;;;;22.02;4.18;;;9.20;99.90;;;;;;5096632;28;20469;-68
2023/12/10 00:16:01;;;;;;;24.15;4.78;;;9.20;99.90;;;;;;5096049;28;20067;-69
2023/12/10 00:18:28;;;;;;;16.55;3.65;;;9.20;99.90;;;;;;5096159;28;20044;-68
2023/12/10 00:20:55;;;;;;;20.95;4.40;;;9.20;99.90;;;;;;5096073;28;20119;-69
2023/12/10 00:23:21;;;;;;;17.08;3.67;;;9.20;99.90;;;;;;5096474;28;20052;-69
2023/12/10 00:25:48;;;;;;;19.40;4.25;;;9.20;99.90;;;;;;5096066;28;20072;-69
2023/12/10 00:28:15;;;;;;;17.38;3.95;;;9.20;99.90;;;;;;5096186;28;20048;-69
2023/12/10 00:30:42;;;;;;;17.80;3.47;;;9.20;99.90;;;;;;5095887;28;20048;-69
2023/12/10 00:33:09;;;;;;;20.17;3.63;;;9.10;99.90;;;;;;5096117;28;20036;-69
2023/12/10 00:35:36;;;;;;;20.88;4.03;;;9.10;99.90;;;;;;5095511;28;20059;-69
2023/12/10 00:38:03;;;;;;;17.90;3.78;;;9.10;99.90;;;;;;5095882;28;20048;-69
2023/12/10 00:40:30;;;;;;;19.15;3.75;;;9.10;99.90;;;;;;5095489;28;20128;-69
2023/12/10 00:42:58;;;;;;;17.85;3.55;;;9.10;99.90;;;;;;5094450;28;20048;-64
2023/12/10 00:45:25;;;;;;;19.77;3.53;;;9.10;99.90;;;;;;5096025;28;20101;-65
2023/12/10 00:47:52;;;;;;;18.13;4.28;;;9.10;99.90;;;;;;5095697;28;20128;-65
2023/12/10 00:50:19;;;;;;;17.33;3.80;;;9.00;99.90;;;;;;5095746;28;20127;-64
2023/12/10 00:52:46;;;;;;;21.67;3.63;;;9.10;99.90;;;;;;5095440;28;20499;-65
2023/12/10 00:55:13;;;;;;;23.13;4.18;;;9.00;99.90;;;;;;5095664;28;20044;-65
2023/12/10 00:57:40;;;;;;;21.35;4.15;;;9.00;99.90;;;;;;5095719;28;20048;-65
2023/12/10 01:00:07;;;;;;;27.15;5.78;;;9.00;99.90;;;;;;5095699;28;20036;-65
2023/12/10 01:02:39;;;;;;;20.15;3.72;;;9.00;99.90;;;;;;5095456;28;20098;-65
2023/12/10 01:05:06;;;;;;;15.88;3.45;;;9.00;99.90;;;;;;5095204;28;20044;-65
2023/12/10 01:07:32;;;;;;;19.23;3.70;;;9.00;99.90;;;;;;5095293;28;20048;-65
2023/12/10 01:09:59;;;;;;;18.13;4.10;;;9.00;99.90;;;;;;5095320;28;20362;-65
2023/12/10 01:12:26;;;;;;;21.73;3.92;;;9.00;99.90;;;;;;5094412;28;20044;-65
2023/12/10 01:14:53;;;;;;;20.88;3.72;;;9.00;99.90;;;;;;5094998;28;20560;-65
2023/12/10 01:17:20;;;;;;;18.40;3.67;;;9.00;99.90;;;;;;5094841;28;20064;-65
2023/12/10 01:19:48;;;;;;;24.00;5.10;;;9.00;99.90;;;;;;5094653;28;20044;-65
2023/12/10 01:22:15;;;;;;;17.85;5.35;;;8.90;99.90;;;;;;5086898;28;20052;-65
2023/12/10 01:24:43;;;;;;;18.95;3.78;;;8.90;99.90;;;;;;5074990;28;20049;-65
2023/12/10 01:27:10;;;;;;;17.08;3.78;;;8.90;99.90;;;;;;5074729;28;20040;-65
2023/12/10 01:29:37;;;;;;;18.85;3.70;;;8.90;99.90;;;;;;5075020;28;20060;-65
2023/12/10 01:32:04;;;;;;;18.45;4.95;;;8.90;99.90;;;;;;5074548;28;20079;-65
2023/12/10 01:34:30;;;;;;;17.70;4.05;;;8.90;99.90;;;;;;5074510;28;20398;-65
2023/12/10 01:36:58;;;;;;;18.33;3.72;;;8.90;99.90;;;;;;5074455;28;20169;-65
2023/12/10 01:39:25;;;;;;;26.88;4.78;;;8.90;99.90;;;;;;5074335;28;20040;-65
2023/12/10 01:41:52;;;;;;;22.13;4.22;;;8.90;99.90;;;;;;5074277;28;20043;-65
2023/12/10 01:44:19;;;;;;;19.13;4.05;;;8.90;99.90;;;;;;5074360;28;20550;-65
2023/12/10 01:46:45;;;;;;;19.15;3.60;;;8.90;99.90;;;;;;5074603;28;20115;-65
2023/12/10 01:49:12;;;;;;;18.25;4.05;;;8.90;99.90;;;;;;5074051;28;20492;-65
2023/12/10 01:51:39;;;;;;;23.17;4.05;;;8.90;99.90;;;;;;5072862;28;20523;-65
2023/12/10 01:54:06;;;;;;;20.70;4.07;;;8.90;99.90;;;;;;5074385;28;20098;-65
2023/12/10 01:56:33;;;;;;;21.13;4.15;;;8.90;99.90;;;;;;5074157;28;20068;-65
2023/12/10 01:59:00;;;;;;;21.20;4.32;;;8.90;99.90;;;;;;5073913;28;20468;-65
2023/12/10 02:01:27;;;;;;;20.20;4.60;;;8.90;99.90;;;;;;5073927;28;20161;-65
2023/12/10 02:03:54;;;;;;;24.65;3.80;;;8.90;99.90;;;;;;5074061;28;20048;-65
2023/12/10 02:06:24;;;;;;;23.33;3.80;;;8.80;99.90;;;;;;5073967;28;20041;-65
2023/12/10 02:08:51;;;;;;;24.38;4.28;;;8.80;99.90;;;;;;5074033;28;20094;-66
2023/12/10 02:11:18;;;;;;;21.92;4.50;;;8.80;99.90;;;;;;5073918;28;20373;-66
2023/12/10 02:13:45;;;;;;;22.17;4.05;;;8.90;99.90;;;;;;5074000;28;20037;-65
2023/12/10 02:16:12;;;;;;;23.30;3.78;;;8.80;99.90;;;;;;5073957;28;20037;-65
2023/12/10 02:18:39;;;;;;;19.80;4.57;;;8.80;99.90;;;;;;5073723;28;20044;-65
2023/12/10 02:21:06;;;;;;;17.90;4.00;;;8.80;99.90;;;;;;5073917;28;20086;-65
2023/12/10 02:23:33;;;;;;;24.80;4.50;;;8.70;99.90;;;;;;5073790;28;20076;-65
2023/12/10 02:26:00;;;;;;;23.48;4.57;;;8.70;99.90;;;;;;5073856;28;20068;-65
2023/12/10 02:28:27;;;;;;;21.95;4.15;;;8.70;99.90;;;;;;5073373;28;20451;-65
2023/12/10 02:30:54;;;;;;;21.42;3.42;;;8.70;99.90;;;;;;5073813;28;20048;-65
2023/12/10 02:33:20;;;;;;;21.77;3.90;;;8.70;99.90;;;;;;5073429;28;20119;-65
2023/12/10 02:35:47;;;;;;;24.05;4.35;;;8.70;99.90;;;;;;5073656;28;20040;-64
2023/12/10 02:38:20;;;;;;;22.33;3.83;;;8.70;99.90;;;;;;5073520;28;20119;-65
2023/12/10 02:40:48;;;;;;;22.00;3.53;;;8.80;99.90;;;;;;5073700;28;20052;-65
2023/12/10 02:43:16;;;;;;;23.00;3.88;;;8.80;99.90;;;;;;5072057;28;20056;-65
2023/12/10 02:45:43;;;;;;;24.55;3.78;;;8.70;99.90;;;;;;5072173;28;20060;-65
2023/12/10 02:48:10;;;;;;;17.73;3.97;;;8.70;99.90;;;;;;5073380;28;20047;-65
2023/12/10 02:50:37;;;;;;;18.85;3.75;;;8.70;99.90;;;;;;5073194;28;20041;-65
2023/12/10 02:53:04;;;;;;;22.38;4.07;;;8.70;99.90;;;;;;5072226;28;20044;-65
2023/12/10 02:55:31;;;;;;;24.13;4.15;;;8.60;99.90;;;;;;5073518;28;20075;-65
2023/12/10 02:57:57;;;;;;;28.50;3.97;;;8.60;99.90;;;;;;5073596;28;20036;-65
2023/12/10 03:00:24;;;;;;;17.50;3.15;;;8.60;99.90;;;;;;5073355;28;20119;-65
2023/12/10 03:02:51;;;;;;;22.30;4.28;;;8.50;99.90;;;;;;5073300;28;20045;-65
2023/12/10 03:05:18;;;;;;;25.50;4.18;;;8.50;99.90;;;;;;5076761;28;20046;-65
2023/12/10 03:07:45;;;;;;;18.05;3.72;;;8.50;99.90;;;;;;5079609;28;20045;-65
2023/12/10 03:10:11;;;;;;;26.48;4.03;;;8.50;99.90;;;;;;5079661;28;20539;-65
2023/12/10 03:12:38;;;;;;;24.60;4.03;;;8.40;99.90;;;;;;5079991;28;20036;-66
2023/12/10 03:15:05;;;;;;;25.55;4.10;;;8.40;99.90;;;;;;5079517;28;20033;-65
2023/12/10 03:17:32;;;;;;;29.55;4.57;;;8.40;99.90;;;;;;5079907;28;20427;-66
2023/12/10 03:19:59;;;;;;;20.77;3.30;;;8.40;99.90;;;;;;5078496;28;20115;-65
2023/12/10 03:22:25;;;;;;;16.77;3.58;;;8.40;99.90;;;;;;5061322;28;20437;-65
2023/12/10 03:24:53;;;;;;;24.42;3.75;;;8.40;99.90;;;;;;5080030;28;20044;-65
2023/12/10 03:27:20;;;;;;;30.77;4.57;;;8.40;99.90;;;;;;5079986;28;20226;-65
2023/12/10 03:29:46;;;;;;;22.42;4.20;;;8.40;99.90;;;;;;5079673;28;20048;-65
2023/12/10 03:32:13;;;;;;;21.13;3.78;;;8.40;99.90;;;;;;5079867;28;20045;-65
2023/12/10 03:34:40;;;;;;;29.88;4.60;;;8.40;99.90;;;;;;5079627;28;20149;-65
2023/12/10 03:37:07;;;;;;;20.63;3.85;;;8.30;99.90;;;;;;5079576;28;20041;-65
2023/12/10 03:39:34;;;;;;;24.55;4.57;;;8.30;99.90;;;;;;5078364;28;20044;-65
2023/12/10 03:42:01;;;;;;;23.02;4.35;;;8.30;99.90;;;;;;5079994;28;20434;-65
2023/12/10 03:44:31;;;;;;;28.23;4.10;;;8.30;99.90;;;;;;5078224;28;20123;-65
2023/12/10 03:47:01;;;;;;;20.45;3.83;;;8.30;99.90;;;;;;5079546;28;20051;-65
2023/12/10 03:49:28;;;;;;;22.55;4.10;;;8.30;99.90;;;;;;5079506;28;20478;-65
2023/12/10 03:51:55;;;;;;;23.50;3.85;;;8.30;99.90;;;;;;5079836;28;20045;-65
2023/12/10 03:54:22;;;;;;;25.40;4.35;;;8.30;99.90;;;;;;5079283;28;20045;-65
2023/12/10 03:56:49;;;;;;;26.38;4.10;;;8.30;99.90;;;;;;5079703;28;20128;-65
2023/12/10 03:59:16;;;;;;;23.92;4.80;;;8.30;99.90;;;;;;5078368;28;20405;-65
2023/12/10 04:01:43;;;;;;;21.92;4.18;;;8.30;99.90;;;;;;5079471;28;20037;-65
2023/12/10 04:04:09;;;;;;;30.10;5.78;;;8.20;99.90;;;;;;5079458;28;20036;-65
2023/12/10 04:06:36;;;;;;;26.05;4.60;;;8.20;99.90;;;;;;5079596;28;20090;-65
2023/12/10 04:09:03;;;;;;;29.45;5.60;;;8.20;99.90;;;;;;5079553;28;20476;-65
2023/12/10 04:11:30;;;;;;;23.92;4.43;;;8.20;99.90;;;;;;5079568;28;20040;-65
2023/12/10 04:13:56;;;;;;;33.78;4.85;;;8.20;99.90;;;;;;5079334;28;20041;-65
2023/12/10 04:16:23;;;;;;;22.70;3.40;;;8.20;99.90;;;;;;5078006;28;20115;-65
2023/12/10 04:18:50;;;;;;;22.00;3.38;;;8.10;99.90;;;;;;5075819;28;20033;-65
2023/12/10 04:21:17;;;;;;;24.58;3.35;;;8.10;99.90;;;;;;5076340;28;20044;-65
2023/12/10 04:23:44;;;;;;;21.35;3.50;;;8.10;99.90;;;;;;5075903;28;20075;-65
2023/12/10 04:26:10;;;;;;;22.45;4.65;;;8.20;99.90;;;;;;5075726;28;20118;-65
2023/12/10 04:28:37;;;;;;;18.33;3.70;;;8.20;99.90;;;;;;5075627;28;20047;-65
2023/12/10 04:31:04;;;;;;;26.88;3.80;;;8.20;99.90;;;;;;5076075;28;20072;-64
2023/12/10 04:33:31;;;;;;;22.48;4.00;;;8.20;99.90;;;;;;5074835;28;20085;-65
2023/12/10 04:35:58;;;;;;;21.88;3.10;;;8.20;99.90;;;;;;5075866;28;20037;-64
2023/12/10 04:38:24;;;;;;;18.08;3.45;;;8.20;99.90;;;;;;5075396;28;20041;-65
2023/12/10 04:40:51;;;;;;;18.63;3.28;;;8.10;99.90;;;;;;5075361;28;20036;-65
2023/12/10 04:43:18;;;;;;;17.98;3.60;;;8.20;99.90;;;;;;5075439;28;20413;-65
2023/12/10 04:45:45;;;;;;;22.42;3.60;;;8.20;99.90;;;;;;5075734;28;20120;-65
2023/12/10 04:48:12;;;;;;;18.67;3.25;;;8.20;99.90;;;;;;5074037;28;20075;-65
2023/12/10 04:50:40;;;;;;;19.88;3.40;;;8.20;99.90;;;;;;5075894;28;20064;-65
2023/12/10 04:53:07;;;;;;;22.00;3.35;;;8.20;99.90;;;;;;5075534;28;20049;-65
2023/12/10 04:55:34;;;;;;;20.00;3.28;;;8.20;99.90;;;;;;5075384;28;20060;-64
2023/12/10 04:58:00;;;;;;;25.83;4.15;;;8.10;99.90;;;;;;5075549;28;20045;-65
2023/12/10 05:00:27;;;;;;;18.80;3.13;;;8.10;99.90;;;;;;5073891;28;20079;-65
2023/12/10 05:02:54;;;;;;;14.35;3.45;;;8.10;99.90;;;;;;5075252;28;20123;-64
2023/12/10 05:05:21;;;;;;;22.15;3.72;;;8.10;99.90;;;;;;5074916;28;20048;-65
2023/12/10 05:07:48;;;;;;;15.05;2.60;;;8.20;99.90;;;;;;5075176;28;20510;-65
2023/12/10 05:10:14;;;;;;;15.73;2.47;;;8.20;99.90;;;;;;5075092;28;20072;-65
2023/12/10 05:12:41;;;;;;;19.90;3.25;;;8.20;99.90;;;;;;5075395;28;20086;-64
2023/12/10 05:15:08;;;;;;;20.38;4.10;;;8.20;99.90;;;;;;5075218;28;20451;-64
2023/12/10 05:17:35;;;;;;;15.82;3.25;;;8.20;99.90;;;;;;5074907;28;20040;-65
2023/12/10 05:20:04;;;;;;;21.80;3.13;;;8.20;99.90;;;;;;5075250;28;20076;-65
2023/12/10 05:22:31;;;;;;;20.15;3.17;;;8.20;99.90;;;;;;5073812;28;20037;-65
2023/12/10 05:24:59;;;;;;;22.98;3.97;;;8.20;99.90;;;;;;5074975;28;20064;-65
2023/12/10 05:27:26;;;;;;;20.65;3.20;;;8.20;99.90;;;;;;5074277;28;20079;-65
2023/12/10 05:29:52;;;;;;;17.10;2.95;;;8.20;99.90;;;;;;5074532;28;20483;-65
2023/12/10 05:32:19;;;;;;;21.27;3.08;;;8.20;99.90;;;;;;5075206;28;20032;-64
2023/12/10 05:34:46;;;;;;;20.83;4.00;;;8.20;99.90;;;;;;5074586;28;20051;-65
2023/12/10 05:37:17;;;;;;;17.42;2.50;;;8.20;99.90;;;;;;5074753;28;20044;-65
2023/12/10 05:39:43;;;;;;;21.63;3.58;;;8.20;99.90;;;;;;5056587;28;20615;-65
2023/12/10 05:42:10;;;;;;;16.10;2.50;;;8.20;99.90;;;;;;5074444;28;20048;-65
2023/12/10 05:44:37;;;;;;;18.55;2.80;;;8.20;99.90;;;;;;5074431;28;20040;-65
2023/12/10 05:47:04;;;;;;;16.00;2.67;;;8.20;99.90;;;;;;5073505;28;20110;-64
2023/12/10 05:49:31;;;;;;;15.38;2.65;;;8.20;99.90;;;;;;5074391;28;20119;-65
2023/12/10 05:51:57;;;;;;;20.15;3.65;;;8.20;99.90;;;;;;5074601;28;20048;-65
2023/12/10 05:54:24;;;;;;;12.70;3.40;;;8.20;99.90;;;;;;5074409;28;20036;-65
2023/12/10 05:56:51;;;;;;;16.85;2.42;;;8.20;99.90;;;;;;5074257;28;20044;-65
2023/12/10 05:59:18;;;;;;;22.98;3.20;;;8.20;99.90;;;;;;5074184;28;20468;-65
2023/12/10 06:01:45;;;;;;;21.45;3.22;;;8.30;99.90;;;;;;5074239;28;20036;-65
2023/12/10 06:04:11;;;;;;;19.42;3.08;;;8.40;99.90;;;;;;5074337;28;20076;-65
2023/12/10 06:06:38;;;;;;;16.38;2.88;;;8.40;99.90;;;;;;5074186;28;20043;-65
2023/12/10 06:09:05;;;;;;;22.65;3.78;;;8.40;99.90;;;;;;5074118;28;20496;-65
2023/12/10 06:11:32;;;;;;;18.85;3.38;;;8.40;99.90;;;;;;5073668;28;20056;-68
2023/12/10 06:13:59;;;;;;;22.50;3.40;;;8.50;99.90;;;;;;5073839;28;20060;-68
2023/12/10 06:16:26;;;;;;;16.52;2.85;;;8.50;99.90;;;;;;5074132;28;20123;-65
2023/12/10 06:18:52;;;;;;;17.52;3.28;;;8.50;99.90;;;;;;5073853;28;20040;-65
2023/12/10 06:21:19;;;;;;;16.00;3.25;;;8.50;99.90;;;;;;5072576;28;20462;-65
2023/12/10 06:23:47;;;;;;;15.10;3.08;;;8.60;99.90;;;;;;5073579;28;20106;-65
2023/12/10 06:26:13;;;;;;;19.90;3.35;;;8.60;99.90;;;;;;5073827;28;20059;-65
2023/12/10 06:28:40;;;;;;;21.38;3.75;;;8.60;99.90;;;;;;5074090;28;20135;-65
2023/12/10 06:31:07;;;;;;;19.58;4.03;;;8.60;99.90;;;;;;5073749;28;20055;-65
2023/12/10 06:33:34;;;;;;;26.30;4.00;;;8.70;99.90;;;;;;5073955;28;20047;-65
2023/12/10 06:36:00;;;;;;;20.25;3.90;;;8.70;99.90;;;;;;5073480;28;20103;-65
2023/12/10 06:38:27;;;;;;;24.45;4.60;;;8.70;99.90;;;;;;5073871;28;20063;-65
2023/12/10 06:40:54;;;;;;;21.50;3.90;;;8.70;99.90;;;;;;5072814;28;20032;-65
2023/12/10 06:43:21;;;;;;;20.90;4.53;;;8.70;99.90;;;;;;5073107;28;20068;-65
2023/12/10 06:45:48;;;;;;;26.23;4.25;;;8.70;99.90;;;;;;5073644;28;20041;-65
2023/12/10 06:48:15;;;;;;;21.25;4.22;;;8.70;99.90;;;;;;5073295;28;20040;-65
2023/12/10 06:50:42;;;;;;;21.90;3.95;;;8.80;99.90;;;;;;5073587;28;20047;-65
2023/12/10 06:53:09;;;;;;;24.30;4.85;;;8.80;99.90;;;;;;5073776;28;20049;-65
2023/12/10 06:55:36;;;;;;;26.95;4.53;;;8.80;99.90;;;;;;5073219;28;20051;-65
2023/12/10 06:58:03;;;;;;;28.25;4.90;;;8.80;99.90;;;;;;5073472;28;20075;-65
2023/12/10 07:00:30;;;;;;;23.27;4.75;;;8.80;99.90;;;;;;5072973;28;20036;-65
2023/12/10 07:02:57;;;;;;;23.75;4.53;;;8.80;99.90;;;;;;5072937;28;20040;-65
2023/12/10 07:05:24;;;;;;;25.80;4.53;;;8.80;99.90;;;;;;5073064;28;20036;-65
2023/12/10 07:07:51;;;;;;;28.50;4.57;;;8.80;99.90;;;;;;5073340;28;20040;-65
2023/12/10 07:10:18;;;;;;;29.70;5.55;;;8.80;99.90;;;;;;5072759;28;20047;-65
2023/12/10 07:12:44;;;;;;;28.30;5.45;;;8.80;99.90;;;;;;5073307;28;20041;-65
2023/12/10 07:15:11;;;;;;;29.45;5.57;;;8.70;99.90;;;;;;5073100;28;20086;-66
2023/12/10 07:17:38;;;;;;;33.33;5.47;;;8.70;99.90;;;;;;5073273;28;20040;-66
2023/12/10 07:20:06;;;;;;;29.95;5.20;;;8.70;99.90;;;;;;5072989;28;20044;-65
2023/12/10 07:22:33;;;;;;;33.60;5.80;;;8.70;99.90;;;;;;5072984;28;20040;-65
2023/12/10 07:25:00;;;;;;;29.60;5.00;;;8.70;99.90;;;;;;5073129;28;20095;-65
2023/12/10 07:27:27;;;;;;;30.70;4.90;;;8.60;99.90;;;;;;5072545;28;20040;-65
2023/12/10 07:29:54;;;;;;;32.25;5.13;;;8.70;99.90;;;;;;5072984;28;20512;-65
2023/12/10 07:32:21;;;;;;;34.17;5.07;;;8.60;99.90;;;;;;5072851;28;20045;-65
2023/12/10 07:34:48;;;;;;;31.20;6.72;;;8.60;99.90;;;;;;5072993;28;20432;-65
2023/12/10 07:37:14;;;;;;;29.92;4.80;;;8.60;99.90;;;;;;5071681;28;20399;-65
2023/12/10 07:39:41;;;;;;;31.40;5.10;;;8.60;99.90;;;;;;5072723;28;20094;-65
2023/12/10 07:42:08;;;;;;;36.00;6.22;;;8.60;99.90;;;;;;5072528;28;20067;-65
2023/12/10 07:44:35;;;;;;;33.67;5.78;;;8.60;99.90;;;;;;5072822;28;20055;-65
2023/12/10 07:47:02;;;;;;;24.75;5.10;;;8.60;99.90;;;;;;5073300;28;20466;-65
2023/12/10 07:49:29;;;;;;;30.52;4.95;;;8.70;99.90;;;;;;5072594;28;20033;-65
2023/12/10 07:51:56;;;;;;;34.03;5.47;;;8.70;99.90;;;;;;5075596;28;20448;-65
2023/12/10 07:54:23;;;;;;;29.92;6.03;;;8.70;99.90;;;;;;5076823;28;20040;-65
2023/12/10 07:56:49;;;;;;;28.75;4.95;;;8.80;99.90;;;;;;5076628;28;20045;-65
2023/12/10 07:59:17;;;;;;;28.90;5.05;;;8.80;99.90;;;;;;5075216;28;20048;-65
2023/12/10 08:01:44;;;;;;;33.25;5.32;;;8.80;99.90;;;;;;5076470;28;20094;-65
2023/12/10 08:04:11;;;;;;;33.67;5.95;;;8.80;99.90;;;;;;5075756;28;20444;-65
2023/12/10 08:06:37;;;;;;;28.45;5.32;;;8.80;99.90;;;;;;5076822;28;20060;-65
2023/12/10 08:09:04;;;;;;;36.28;5.57;;;8.80;99.90;;;;;;5076252;28;20378;-65
2023/12/10 08:11:31;;;;;;;33.00;5.28;;;8.80;99.90;;;;;;5076752;28;20036;-65
2023/12/10 08:13:58;;;;;;;31.95;5.32;;;8.90;99.90;;;;;;5076694;28;20047;-65
2023/12/10 08:16:25;;;;;;;30.95;5.55;;;8.80;99.90;;;;;;5076503;28;20067;-65
2023/12/10 08:18:52;;;;;;;35.45;6.00;;;8.80;99.90;;;;;;5076278;28;20032;-65
2023/12/10 08:21:19;;;;;;;37.40;6.43;;;8.80;99.90;;;;;;5076111;28;20481;-65
2023/12/10 08:23:47;;;;;;;30.30;5.05;;;8.90;99.90;;;;;;5076561;28;20076;-65
2023/12/10 08:26:14;;;;;;;39.22;6.35;;;8.90;99.90;;;;;;5076375;28;20037;-65
2023/12/10 08:28:40;;;;;;;32.28;6.15;;;8.90;99.90;;;;;;5075175;28;20051;-65
2023/12/10 08:31:07;;;;;;;35.17;6.55;;;8.90;99.90;;;;;;5076092;28;20075;-65
2023/12/10 08:33:34;;;;;;;38.17;6.60;;;8.90;99.90;;;;;;5076161;28;20040;-65
2023/12/10 08:36:01;;;;;;;34.88;5.28;;;8.90;99.90;;;;;;5076110;28;20454;-65
2023/12/10 08:38:28;;;;;;;33.28;5.78;;;8.90;99.90;;;;;;5075775;28;20814;-65
2023/12/10 08:40:55;;;;;;;33.15;6.55;;;8.90;99.90;;;;;;5087784;28;20044;-65
2023/12/10 08:43:22;;;;;;;33.80;6.03;;;9.00;99.90;;;;;;5095249;28;20496;-65
2023/12/10 08:45:49;;;;;;;38.40;5.95;;;9.00;99.90;;;;;;5095451;28;20036;-65
2023/12/10 08:48:16;;;;;;;38.85;6.07;;;9.00;99.90;;;;;;5094972;28;20133;-65
2023/12/10 08:50:43;;;;;;;25.75;5.03;;;9.00;99.90;;;;;;5095555;28;20032;-65
2023/12/10 08:53:10;;;;;;;33.25;6.28;;;9.10;99.90;;;;;;5095390;28;20044;-65
2023/12/10 08:55:37;;;;;;;40.08;6.93;;;9.10;99.90;;;;;;5095563;28;20032;-65
2023/12/10 08:58:03;;;;;;;31.08;5.72;;;9.20;99.90;;;;;;5094070;28;20447;-65
2023/12/10 09:00:30;;;;;;;32.50;6.13;;;9.20;99.90;;;;;;5095273;28;20036;-66
2023/12/10 09:02:57;;;;;;;32.40;6.35;;;9.20;99.90;;;;;;5094424;28;20075;-64
2023/12/10 09:05:24;;;;;;;33.00;6.50;;;9.20;99.90;;;;;;5094998;28;20400;-64
2023/12/10 09:07:51;;;;;;;35.83;6.72;;;9.30;99.90;;;;;;5095739;28;20043;-65
2023/12/10 09:10:18;;;;;;;36.85;6.22;;;9.30;99.90;;;;;;5095380;28;20036;-65
2023/12/10 09:12:45;;;;;;;35.28;6.32;;;9.40;99.90;;;;;;5095987;28;20043;-65
2023/12/10 09:15:11;;;;;;;32.38;6.13;;;9.50;99.90;;;;;;5095153;28;20036;-64
2023/12/10 09:17:38;;;;;;;41.25;6.65;;;9.50;99.90;;;;;;5094915;28;20032;-65
2023/12/10 09:20:05;;;;;;;34.38;5.47;;;9.60;99.90;;;;;;5094572;28;20036;-65
2023/12/10 09:22:32;;;;;;;38.53;6.97;;;9.60;99.90;;;;;;5094565;28;20124;-65
2023/12/10 09:24:59;;;;;;;38.60;6.25;;;9.70;99.90;;;;;;5095076;28;20492;-64
2023/12/10 09:27:26;;;;;;;40.22;7.90;;;9.70;99.90;;;;;;5094862;28;20043;-64
2023/12/10 09:29:53;;;;;;;34.45;6.57;;;9.70;99.90;;;;;;5094661;28;20044;-64
2023/12/10 09:32:23;;;;;;;35.30;6.95;;;9.80;99.90;;;;;;5094953;28;20032;-64
2023/12/10 09:34:50;;;;;;;31.15;7.00;;;9.90;99.90;;;;;;5094410;28;20036;-64
2023/12/10 09:37:17;;;;;;;40.13;6.60;;;9.90;99.90;;;;;;5094635;28;20110;-64
2023/12/10 09:39:44;;;;;;;35.05;6.28;;;9.90;99.90;;;;;;5094516;28;20036;-64
2023/12/10 09:42:12;;;;;;;35.67;6.63;;;10.00;99.90;;;;;;5092920;28;20119;-64
2023/12/10 09:44:39;;;;;;;33.65;6.10;;;10.10;99.90;;;;;;5077437;28;20093;-64
2023/12/10 09:47:06;;;;;;;40.00;6.50;;;10.10;99.90;;;;;;5094209;28;20047;-64
2023/12/10 09:49:33;;;;;;;34.00;7.15;;;10.20;99.90;;;;;;5093322;28;20075;-67
2023/12/10 09:52:00;;;;;;;42.40;7.22;;;10.30;99.90;;;;;;5094374;28;20039;-65
2023/12/10 09:54:27;;;;;;;42.80;6.57;;;10.30;99.90;;;;;;5094634;28;20123;-63
2023/12/10 09:56:56;;;;;;;36.95;7.20;;;10.40;99.90;;;;;;5095031;28;20036;-64
2023/12/10 09:59:23;;;;;;;39.08;7.35;;;10.40;99.90;;;;;;5094672;28;20040;-59
2023/12/10 10:01:50;;;;;;;41.67;6.88;;;10.40;99.90;;;;;;5094122;28;20040;-60
2023/12/10 10:04:17;;;;;;;31.23;6.50;;;10.50;99.90;;;;;;5087777;28;20048;-60
2023/12/10 10:06:44;;;;;;;34.47;5.85;;;10.50;99.90;;;;;;5093587;28;20055;-61
2023/12/10 10:09:11;;;;;;;36.25;6.22;;;10.50;99.90;;;;;;5093536;28;20052;-61
2023/12/10 10:11:53;;;;;;;33.80;6.18;;;10.50;99.90;;;;;;5094130;28;20049;-61
2023/12/10 10:14:20;;;;;;;41.67;6.80;;;10.50;99.90;;;;;;5073352;28;20051;-61
2023/12/10 10:16:48;;;;;;;43.13;6.70;;;10.50;99.90;;;;;;5073569;28;20093;-61
2023/12/10 10:19:14;;;;;;;33.47;6.97;;;10.60;99.90;;;;;;5092537;28;20062;-61
2023/12/10 10:21:42;;;;;;;36.95;6.65;;;10.60;99.90;;;;;;5091489;28;20452;-61
2023/12/10 10:24:09;;;;;;;29.30;5.40;;;10.70;99.90;;;;;;5092417;28;20040;-66
2023/12/10 10:26:36;;;;;;;42.10;7.82;;;10.70;99.90;;;;;;5092618;28;20115;-61
2023/12/10 10:29:03;;;;;;;30.42;5.63;;;10.70;99.90;;;;;;5075753;28;20040;-61
2023/12/10 10:31:30;;;;;;;31.77;6.95;;;10.70;99.90;;;;;;5072696;28;20085;-61
2023/12/10 10:33:56;;;;;;;32.85;6.13;;;10.70;99.90;;;;;;5073136;28;20045;-61
2023/12/10 10:36:23;;;;;;;27.90;5.68;;;10.70;99.90;;;;;;5073205;28;20042;-61
2023/12/10 10:38:50;;;;;;;36.53;6.63;;;10.70;99.90;;;;;;5088011;28;20060;-61
2023/12/10 10:41:17;;;;;;;30.55;5.40;;;10.70;99.90;;;;;;5093754;28;20491;-61
2023/12/10 10:43:44;;;;;;;34.50;6.40;;;10.70;99.90;;;;;;5093120;28;20048;-61
2023/12/10 10:46:11;;;;;;;30.67;6.28;;;10.80;99.90;;;;;;5093529;28;20032;-61
2023/12/10 10:48:37;;;;;;;35.70;8.05;;;10.80;99.90;;;;;;5081118;28;20040;-61
2023/12/10 10:51:05;;;;;;;40.25;6.40;;;10.80;99.90;;;;;;5073098;28;20036;-61
2023/12/10 10:53:32;;;;;;;35.78;5.95;;;10.80;99.90;;;;;;5084150;28;20043;-61
2023/12/10 10:55:59;;;;;;;28.42;5.57;;;10.80;99.90;;;;;;5093243;28;20055;-61
2023/12/10 10:58:27;;;;;;;20.73;4.10;;;10.80;99.90;;;;;;5092953;28;20044;-61
2023/12/10 11:00:54;;;;;;;22.42;4.35;;;10.70;99.90;;;;;;5093392;28;20101;-61
2023/12/10 11:03:21;;;;;;;32.15;4.82;;;10.60;99.90;;;;;;5092782;28;20036;-61
2023/12/10 11:05:48;;;;;;;32.60;5.57;;;10.60;99.90;;;;;;5093227;28;20047;-61
2023/12/10 11:08:14;;;;;;;27.88;5.18;;;10.50;99.90;;;;;;5092886;28;20127;-60
2023/12/10 11:10:41;;;;;;;39.92;5.60;;;10.50;99.90;;;;;;5092147;28;20449;-60
2023/12/10 11:13:08;;;;;;;30.63;5.93;;;10.50;99.90;;;;;;5093590;28;20516;-60
2023/12/10 11:15:35;;;;;;;30.38;5.75;;;10.40;99.90;;;;;;5093640;28;20032;-60
2023/12/10 11:18:02;;;;;;;31.92;4.80;;;10.50;99.90;;;;;;5093390;28;20036;-60
2023/12/10 11:20:30;;;;;;;29.95;5.20;;;10.40;99.90;;;;;;5093756;28;20036;-59
2023/12/10 11:22:57;;;;;;;29.15;5.07;;;10.40;99.90;;;;;;5093484;28;20464;-59
2023/12/10 11:25:23;;;;;;;30.10;5.13;;;10.40;99.90;;;;;;5093484;28;20548;-59
2023/12/10 11:27:50;;;;;;;27.83;5.35;;;10.40;99.90;;;;;;5097869;28;20052;-70
2023/12/10 11:30:17;;;;;;;27.15;5.28;;;10.40;99.90;;;;;;5097576;28;20048;-69
2023/12/10 11:32:45;;;;;;;28.05;5.47;;;10.50;99.90;;;;;;5097619;28;20048;-70
2023/12/10 11:35:14;;;;;;;33.95;5.85;;;10.50;99.90;;;;;;5097305;28;20089;-71
2023/12/10 11:37:40;;;;;;;33.75;6.05;;;10.50;99.90;;;;;;5097929;28;20213;-70
2023/12/10 11:40:08;;;;;;;28.48;6.55;;;10.50;99.90;;;;;;5097593;28;20527;-71
2023/12/10 11:42:35;;;;;;;36.47;5.90;;;10.50;99.90;;;;;;5097161;28;20051;-71
2023/12/10 11:45:02;;;;;;;28.40;5.35;;;10.50;99.90;;;;;;5092982;28;20484;-61
2023/12/10 11:47:29;;;;;;;30.48;6.05;;;10.50;99.90;;;;;;5097173;28;20047;-61
2023/12/10 11:49:56;;;;;;;30.58;5.05;;;10.50;99.90;;;;;;5097051;28;20400;-60
2023/12/10 11:52:23;;;;;;;31.15;6.05;;;10.50;99.90;;;;;;5096903;28;20543;-60
2023/12/10 11:54:50;;;;;;;32.80;5.40;;;10.50;99.90;;;;;;5096945;28;20495;-68
2023/12/10 11:57:17;;;;;;;36.30;6.72;;;10.50;99.90;;;;;;5097252;28;20032;-68
2023/12/10 11:59:43;;;;;;;24.50;4.95;;;10.50;99.90;;;;;;5096926;28;20040;-69
2023/12/10 12:02:10;;;;;;;30.77;6.50;;;10.50;99.90;;;;;;5095984;28;20044;-61
2023/12/10 12:04:37;;;;;;;23.42;4.82;;;10.50;99.90;;;;;;5096660;28;20119;-61
2023/12/10 12:07:04;;;;;;;25.35;4.72;;;10.50;99.90;;;;;;5096483;28;20040;-61
2023/12/10 12:09:31;;;;;;;21.40;4.93;;;10.50;99.90;;;;;;5095681;28;20059;-61
2023/12/10 12:11:57;;;;;;;27.38;4.63;;;10.50;99.90;;;;;;5095868;28;20376;-61
2023/12/10 12:14:24;;;;;;;24.80;5.45;;;10.50;99.90;;;;;;5096461;28;20046;-61
2023/12/10 12:16:51;;;;;;;19.42;4.55;;;10.50;99.90;;;;;;5096528;28;20047;-61
2023/12/10 12:19:18;;;;;;;23.98;5.55;;;10.50;99.90;;;;;;5096667;28;20449;-61
2023/12/10 12:21:45;;;;;;;28.10;4.63;;;10.50;99.90;;;;;;5096654;28;20039;-61
2023/12/10 12:24:11;;;;;;;23.90;4.60;;;10.50;99.90;;;;;;5096216;28;20040;-61
2023/12/10 12:26:38;;;;;;;19.25;4.53;;;10.40;99.90;;;;;;5096041;28;20047;-61
2023/12/10 12:29:05;;;;;;;16.30;3.92;;;10.30;99.90;;;;;;5096160;28;20458;-60
2023/12/10 12:31:32;;;;;;;19.55;4.07;;;10.30;99.90;;;;;;5095683;28;20036;-60
2023/12/10 12:33:58;;;;;;;17.80;3.40;;;10.20;99.90;;;;;;5096520;28;20122;-68
2023/12/10 12:36:25;;;;;;;18.90;3.63;;;10.20;99.90;;;;;;5095221;28;20036;-69
2023/12/10 12:38:52;;;;;;;13.32;3.35;;;10.20;99.90;;;;;;5094082;28;20043;-69
2023/12/10 12:41:19;;;;;;;17.75;3.45;;;10.20;99.90;;;;;;5093290;28;20044;-68
2023/12/10 12:43:46;;;;;;;16.02;3.20;;;10.20;99.90;;;;;;5094492;28;20048;-69